sensor_id;sensor_type;location;lat;lon;timestamp;P1;durP1;ratioP1;P2;durP2;ratioP2
15114;SDS011;7658;51.456;7.622;2023-07-28T00:01:32;6.40;;;4.57;;
15114;SDS011;7658;51.456;7.622;2023-07-28T00:03:58;9.35;;;5.50;;
15114;SDS011;7658;51.456;7.622;2023-07-28T00:06:24;9.73;;;6.03;;
15114;SDS011;7658;51.456;7.622;2023-07-28T00:08:50;8.68;;;5.75;;
15114;SDS011;7658;51.456;7.622;2023-07-28T00:11:16;12.07;;;6.85;;
15114;SDS011;7658;51.456;7.622;2023-07-28T00:13:42;9.13;;;6.60;;
15114;SDS011;7658;51.456;7.622;2023-07-28T00:16:08;14.18;;;7.45;;
15114;SDS011;7658;51.456;7.622;2023-07-28T00:18:35;14.20;;;7.63;;
15114;SDS011;7658;51.456;7.622;2023-07-28T00:21:01;12.77;;;8.80;;
15114;SDS011;7658;51.456;7.622;2023-07-28T00:23:27;12.48;;;8.45;;
15114;SDS011;7658;51.456;7.622;2023-07-28T00:25:53;14.68;;;9.40;;
15114;SDS011;7658;51.456;7.622;2023-07-28T00:28:19;13.65;;;9.10;;
15114;SDS011;7658;51.456;7.622;2023-07-28T00:30:48;15.80;;;10.23;;
15114;SDS011;7658;51.456;7.622;2023-07-28T00:33:15;19.52;;;10.20;;
15114;SDS011;7658;51.456;7.622;2023-07-28T00:35:41;15.30;;;10.63;;
15114;SDS011;7658;51.456;7.622;2023-07-28T00:38:06;18.52;;;11.85;;
15114;SDS011;7658;51.456;7.622;2023-07-28T00:40:33;15.32;;;11.32;;
15114;SDS011;7658;51.456;7.622;2023-07-28T00:42:59;17.05;;;10.82;;
15114;SDS011;7658;51.456;7.622;2023-07-28T00:45:25;20.13;;;11.13;;
15114;SDS011;7658;51.456;7.622;2023-07-28T00:47:51;19.70;;;11.13;;
15114;SDS011;7658;51.456;7.622;2023-07-28T00:50:17;14.95;;;10.85;;
15114;SDS011;7658;51.456;7.622;2023-07-28T00:52:43;16.65;;;9.70;;
15114;SDS011;7658;51.456;7.622;2023-07-28T00:55:11;14.60;;;9.18;;
15114;SDS011;7658;51.456;7.622;2023-07-28T00:57:37;15.60;;;10.23;;
15114;SDS011;7658;51.456;7.622;2023-07-28T01:00:04;14.27;;;9.20;;
15114;SDS011;7658;51.456;7.622;2023-07-28T01:02:30;15.48;;;9.95;;
15114;SDS011;7658;51.456;7.622;2023-07-28T01:04:57;17.45;;;8.80;;
15114;SDS011;7658;51.456;7.622;2023-07-28T01:07:27;15.93;;;9.50;;
15114;SDS011;7658;51.456;7.622;2023-07-28T01:10:17;13.00;;;8.88;;
15114;SDS011;7658;51.456;7.622;2023-07-28T01:12:49;15.35;;;9.65;;
15114;SDS011;7658;51.456;7.622;2023-07-28T01:15:15;15.73;;;9.02;;
15114;SDS011;7658;51.456;7.622;2023-07-28T01:17:41;13.38;;;8.77;;
15114;SDS011;7658;51.456;7.622;2023-07-28T01:20:07;12.15;;;8.93;;
15114;SDS011;7658;51.456;7.622;2023-07-28T01:22:46;13.60;;;7.97;;
15114;SDS011;7658;51.456;7.622;2023-07-28T01:25:48;12.65;;;8.63;;
15114;SDS011;7658;51.456;7.622;2023-07-28T01:28:17;15.98;;;8.88;;
15114;SDS011;7658;51.456;7.622;2023-07-28T01:30:44;13.75;;;8.57;;
15114;SDS011;7658;51.456;7.622;2023-07-28T01:33:10;14.32;;;9.18;;
15114;SDS011;7658;51.456;7.622;2023-07-28T01:35:36;18.00;;;9.13;;
15114;SDS011;7658;51.456;7.622;2023-07-28T01:38:05;14.35;;;8.93;;
15114;SDS011;7658;51.456;7.622;2023-07-28T01:40:31;14.93;;;8.95;;
15114;SDS011;7658;51.456;7.622;2023-07-28T01:42:57;19.27;;;8.52;;
15114;SDS011;7658;51.456;7.622;2023-07-28T01:45:22;15.38;;;8.80;;
15114;SDS011;7658;51.456;7.622;2023-07-28T01:47:48;14.70;;;8.48;;
15114;SDS011;7658;51.456;7.622;2023-07-28T01:50:14;14.68;;;8.30;;
15114;SDS011;7658;51.456;7.622;2023-07-28T01:52:40;16.55;;;8.57;;
15114;SDS011;7658;51.456;7.622;2023-07-28T01:55:05;12.60;;;7.93;;
15114;SDS011;7658;51.456;7.622;2023-07-28T01:57:35;15.77;;;8.23;;
15114;SDS011;7658;51.456;7.622;2023-07-28T02:00:04;12.13;;;7.97;;
15114;SDS011;7658;51.456;7.622;2023-07-28T02:02:30;12.40;;;7.70;;
15114;SDS011;7658;51.456;7.622;2023-07-28T02:04:56;11.18;;;7.88;;
15114;SDS011;7658;51.456;7.622;2023-07-28T02:07:22;12.30;;;8.13;;
15114;SDS011;7658;51.456;7.622;2023-07-28T02:09:48;12.27;;;8.40;;
15114;SDS011;7658;51.456;7.622;2023-07-28T02:12:13;12.30;;;8.55;;
15114;SDS011;7658;51.456;7.622;2023-07-28T02:14:39;11.80;;;7.50;;
15114;SDS011;7658;51.456;7.622;2023-07-28T02:17:05;10.38;;;7.15;;
15114;SDS011;7658;51.456;7.622;2023-07-28T02:19:30;11.30;;;7.32;;
15114;SDS011;7658;51.456;7.622;2023-07-28T02:21:56;9.82;;;6.40;;
15114;SDS011;7658;51.456;7.622;2023-07-28T02:24:22;11.05;;;6.55;;
15114;SDS011;7658;51.456;7.622;2023-07-28T02:26:47;11.18;;;6.80;;
15114;SDS011;7658;51.456;7.622;2023-07-28T02:29:13;9.63;;;6.35;;
15114;SDS011;7658;51.456;7.622;2023-07-28T02:31:39;9.73;;;6.93;;
15114;SDS011;7658;51.456;7.622;2023-07-28T02:34:05;10.43;;;6.60;;
15114;SDS011;7658;51.456;7.622;2023-07-28T02:36:31;9.38;;;5.93;;
15114;SDS011;7658;51.456;7.622;2023-07-28T02:38:56;10.57;;;6.70;;
15114;SDS011;7658;51.456;7.622;2023-07-28T02:41:22;10.25;;;6.68;;
15114;SDS011;7658;51.456;7.622;2023-07-28T02:43:48;12.60;;;5.80;;
15114;SDS011;7658;51.456;7.622;2023-07-28T02:46:13;8.50;;;5.57;;
15114;SDS011;7658;51.456;7.622;2023-07-28T02:48:39;10.00;;;6.25;;
15114;SDS011;7658;51.456;7.622;2023-07-28T02:51:05;13.60;;;6.13;;
15114;SDS011;7658;51.456;7.622;2023-07-28T02:53:31;9.43;;;5.47;;
15114;SDS011;7658;51.456;7.622;2023-07-28T02:55:56;8.25;;;5.22;;
15114;SDS011;7658;51.456;7.622;2023-07-28T02:58:22;7.78;;;5.22;;
15114;SDS011;7658;51.456;7.622;2023-07-28T03:00:51;7.18;;;5.47;;
15114;SDS011;7658;51.456;7.622;2023-07-28T03:03:17;8.05;;;5.25;;
15114;SDS011;7658;51.456;7.622;2023-07-28T03:05:43;9.80;;;5.60;;
15114;SDS011;7658;51.456;7.622;2023-07-28T03:08:08;9.05;;;5.90;;
15114;SDS011;7658;51.456;7.622;2023-07-28T03:10:34;8.52;;;5.63;;
15114;SDS011;7658;51.456;7.622;2023-07-28T03:13:00;9.48;;;5.25;;
15114;SDS011;7658;51.456;7.622;2023-07-28T03:15:26;10.00;;;6.10;;
15114;SDS011;7658;51.456;7.622;2023-07-28T03:17:51;8.63;;;5.82;;
15114;SDS011;7658;51.456;7.622;2023-07-28T03:20:19;6.35;;;4.63;;
15114;SDS011;7658;51.456;7.622;2023-07-28T03:22:46;8.20;;;5.45;;
15114;SDS011;7658;51.456;7.622;2023-07-28T03:25:12;8.55;;;5.32;;
15114;SDS011;7658;51.456;7.622;2023-07-28T03:27:38;7.43;;;5.07;;
15114;SDS011;7658;51.456;7.622;2023-07-28T03:30:04;9.30;;;5.25;;
15114;SDS011;7658;51.456;7.622;2023-07-28T03:32:32;7.45;;;5.20;;
15114;SDS011;7658;51.456;7.622;2023-07-28T03:34:57;5.63;;;4.30;;
15114;SDS011;7658;51.456;7.622;2023-07-28T03:37:23;10.60;;;4.82;;
15114;SDS011;7658;51.456;7.622;2023-07-28T03:39:49;8.52;;;4.80;;
15114;SDS011;7658;51.456;7.622;2023-07-28T03:42:15;9.25;;;5.00;;
15114;SDS011;7658;51.456;7.622;2023-07-28T03:44:41;7.47;;;5.05;;
15114;SDS011;7658;51.456;7.622;2023-07-28T03:47:07;7.50;;;4.63;;
15114;SDS011;7658;51.456;7.622;2023-07-28T03:49:33;6.43;;;4.63;;
15114;SDS011;7658;51.456;7.622;2023-07-28T03:51:58;7.32;;;4.43;;
15114;SDS011;7658;51.456;7.622;2023-07-28T03:54:24;7.20;;;4.18;;
15114;SDS011;7658;51.456;7.622;2023-07-28T03:56:50;6.22;;;4.22;;
15114;SDS011;7658;51.456;7.622;2023-07-28T03:59:16;7.57;;;4.13;;
15114;SDS011;7658;51.456;7.622;2023-07-28T04:01:42;5.93;;;4.05;;
15114;SDS011;7658;51.456;7.622;2023-07-28T04:04:08;7.90;;;4.28;;
15114;SDS011;7658;51.456;7.622;2023-07-28T04:09:07;7.68;;;3.67;;
15114;SDS011;7658;51.456;7.622;2023-07-28T04:11:33;6.47;;;3.72;;
15114;SDS011;7658;51.456;7.622;2023-07-28T04:13:59;6.28;;;3.80;;
15114;SDS011;7658;51.456;7.622;2023-07-28T04:16:25;10.25;;;4.10;;
15114;SDS011;7658;51.456;7.622;2023-07-28T04:18:52;6.05;;;3.78;;
15114;SDS011;7658;51.456;7.622;2023-07-28T04:21:17;7.32;;;3.55;;
15114;SDS011;7658;51.456;7.622;2023-07-28T04:23:43;7.93;;;3.92;;
15114;SDS011;7658;51.456;7.622;2023-07-28T04:26:09;5.43;;;3.83;;
15114;SDS011;7658;51.456;7.622;2023-07-28T04:28:34;5.30;;;3.83;;
15114;SDS011;7658;51.456;7.622;2023-07-28T04:31:00;7.55;;;4.13;;
15114;SDS011;7658;51.456;7.622;2023-07-28T04:33:26;10.95;;;4.78;;
15114;SDS011;7658;51.456;7.622;2023-07-28T04:35:52;6.10;;;4.13;;
15114;SDS011;7658;51.456;7.622;2023-07-28T04:38:17;12.55;;;4.75;;
15114;SDS011;7658;51.456;7.622;2023-07-28T04:40:43;7.68;;;4.15;;
15114;SDS011;7658;51.456;7.622;2023-07-28T04:43:09;6.70;;;3.72;;
15114;SDS011;7658;51.456;7.622;2023-07-28T04:45:35;6.43;;;3.70;;
15114;SDS011;7658;51.456;7.622;2023-07-28T04:48:01;5.30;;;3.47;;
15114;SDS011;7658;51.456;7.622;2023-07-28T04:50:28;7.53;;;3.67;;
15114;SDS011;7658;51.456;7.622;2023-07-28T04:52:54;8.65;;;3.65;;
15114;SDS011;7658;51.456;7.622;2023-07-28T04:55:20;5.97;;;3.72;;
15114;SDS011;7658;51.456;7.622;2023-07-28T04:57:45;4.93;;;3.60;;
15114;SDS011;7658;51.456;7.622;2023-07-28T05:00:11;6.53;;;4.13;;
15114;SDS011;7658;51.456;7.622;2023-07-28T05:02:38;7.90;;;4.55;;
15114;SDS011;7658;51.456;7.622;2023-07-28T05:05:04;13.25;;;4.63;;
15114;SDS011;7658;51.456;7.622;2023-07-28T05:07:30;9.32;;;5.22;;
15114;SDS011;7658;51.456;7.622;2023-07-28T05:09:55;10.50;;;5.57;;
15114;SDS011;7658;51.456;7.622;2023-07-28T05:12:21;7.40;;;4.97;;
15114;SDS011;7658;51.456;7.622;2023-07-28T05:14:47;9.40;;;4.70;;
15114;SDS011;7658;51.456;7.622;2023-07-28T05:17:13;5.95;;;3.85;;
15114;SDS011;7658;51.456;7.622;2023-07-28T05:19:39;5.90;;;3.30;;
15114;SDS011;7658;51.456;7.622;2023-07-28T05:22:05;5.45;;;3.35;;
15114;SDS011;7658;51.456;7.622;2023-07-28T05:24:31;4.75;;;3.58;;
15114;SDS011;7658;51.456;7.622;2023-07-28T05:27:00;3.13;;;2.80;;
15114;SDS011;7658;51.456;7.622;2023-07-28T05:29:26;6.45;;;3.05;;
15114;SDS011;7658;51.456;7.622;2023-07-28T05:31:52;4.93;;;3.10;;
15114;SDS011;7658;51.456;7.622;2023-07-28T05:34:18;3.78;;;2.83;;
15114;SDS011;7658;51.456;7.622;2023-07-28T05:36:43;3.03;;;2.70;;
15114;SDS011;7658;51.456;7.622;2023-07-28T05:39:09;3.72;;;2.60;;
15114;SDS011;7658;51.456;7.622;2023-07-28T05:41:38;4.90;;;3.42;;
15114;SDS011;7658;51.456;7.622;2023-07-28T05:44:04;4.43;;;3.25;;
15114;SDS011;7658;51.456;7.622;2023-07-28T05:46:30;5.40;;;3.28;;
15114;SDS011;7658;51.456;7.622;2023-07-28T05:48:56;4.10;;;3.00;;
15114;SDS011;7658;51.456;7.622;2023-07-28T05:51:22;5.28;;;3.08;;
15114;SDS011;7658;51.456;7.622;2023-07-28T05:53:48;4.40;;;3.20;;
15114;SDS011;7658;51.456;7.622;2023-07-28T05:56:15;5.47;;;3.70;;
15114;SDS011;7658;51.456;7.622;2023-07-28T05:58:41;8.20;;;3.92;;
15114;SDS011;7658;51.456;7.622;2023-07-28T06:01:06;5.53;;;3.83;;
15114;SDS011;7658;51.456;7.622;2023-07-28T06:03:33;6.40;;;4.15;;
15114;SDS011;7658;51.456;7.622;2023-07-28T06:05:59;7.97;;;3.88;;
15114;SDS011;7658;51.456;7.622;2023-07-28T06:08:24;6.97;;;4.13;;
15114;SDS011;7658;51.456;7.622;2023-07-28T06:10:50;8.52;;;4.93;;
15114;SDS011;7658;51.456;7.622;2023-07-28T06:13:16;6.88;;;4.95;;
15114;SDS011;7658;51.456;7.622;2023-07-28T06:15:42;6.45;;;4.82;;
15114;SDS011;7658;51.456;7.622;2023-07-28T06:18:08;6.07;;;4.93;;
15114;SDS011;7658;51.456;7.622;2023-07-28T06:20:33;7.28;;;5.40;;
15114;SDS011;7658;51.456;7.622;2023-07-28T06:23:00;7.65;;;5.25;;
15114;SDS011;7658;51.456;7.622;2023-07-28T06:25:26;12.05;;;5.40;;
15114;SDS011;7658;51.456;7.622;2023-07-28T06:27:52;9.13;;;5.95;;
15114;SDS011;7658;51.456;7.622;2023-07-28T06:30:18;12.63;;;6.05;;
15114;SDS011;7658;51.456;7.622;2023-07-28T06:32:44;11.60;;;6.70;;
15114;SDS011;7658;51.456;7.622;2023-07-28T06:35:09;9.23;;;6.10;;
15114;SDS011;7658;51.456;7.622;2023-07-28T06:37:38;8.90;;;6.43;;
15114;SDS011;7658;51.456;7.622;2023-07-28T06:40:07;7.82;;;5.32;;
15114;SDS011;7658;51.456;7.622;2023-07-28T06:42:34;9.95;;;5.35;;
15114;SDS011;7658;51.456;7.622;2023-07-28T06:45:01;7.70;;;4.82;;
15114;SDS011;7658;51.456;7.622;2023-07-28T06:47:28;6.70;;;5.10;;
15114;SDS011;7658;51.456;7.622;2023-07-28T06:49:54;7.95;;;6.30;;
15114;SDS011;7658;51.456;7.622;2023-07-28T06:52:20;7.95;;;4.90;;
15114;SDS011;7658;51.456;7.622;2023-07-28T06:54:46;7.68;;;5.32;;
15114;SDS011;7658;51.456;7.622;2023-07-28T06:57:14;8.13;;;5.32;;
15114;SDS011;7658;51.456;7.622;2023-07-28T06:59:40;7.78;;;4.78;;
15114;SDS011;7658;51.456;7.622;2023-07-28T07:02:07;10.82;;;5.40;;
15114;SDS011;7658;51.456;7.622;2023-07-28T07:04:34;11.77;;;5.07;;
15114;SDS011;7658;51.456;7.622;2023-07-28T07:07:00;6.53;;;4.45;;
15114;SDS011;7658;51.456;7.622;2023-07-28T07:09:26;7.95;;;4.38;;
15114;SDS011;7658;51.456;7.622;2023-07-28T07:11:51;8.95;;;5.25;;
15114;SDS011;7658;51.456;7.622;2023-07-28T07:14:18;5.78;;;4.15;;
15114;SDS011;7658;51.456;7.622;2023-07-28T07:16:44;7.32;;;3.83;;
15114;SDS011;7658;51.456;7.622;2023-07-28T07:19:09;9.18;;;3.65;;
15114;SDS011;7658;51.456;7.622;2023-07-28T07:21:35;4.00;;;3.17;;
15114;SDS011;7658;51.456;7.622;2023-07-28T07:24:02;7.30;;;4.03;;
15114;SDS011;7658;51.456;7.622;2023-07-28T07:26:29;7.28;;;4.00;;
15114;SDS011;7658;51.456;7.622;2023-07-28T07:28:56;5.13;;;3.25;;
15114;SDS011;7658;51.456;7.622;2023-07-28T07:31:22;5.30;;;3.88;;
15114;SDS011;7658;51.456;7.622;2023-07-28T07:33:48;5.05;;;4.05;;
15114;SDS011;7658;51.456;7.622;2023-07-28T07:36:15;7.03;;;4.72;;
15114;SDS011;7658;51.456;7.622;2023-07-28T07:38:42;7.25;;;4.85;;
15114;SDS011;7658;51.456;7.622;2023-07-28T07:41:10;6.30;;;4.53;;
15114;SDS011;7658;51.456;7.622;2023-07-28T07:43:38;6.88;;;4.30;;
15114;SDS011;7658;51.456;7.622;2023-07-28T07:46:04;4.38;;;3.97;;
15114;SDS011;7658;51.456;7.622;2023-07-28T07:48:30;7.75;;;3.90;;
15114;SDS011;7658;51.456;7.622;2023-07-28T07:50:55;5.68;;;3.92;;
15114;SDS011;7658;51.456;7.622;2023-07-28T07:53:21;3.63;;;3.20;;
15114;SDS011;7658;51.456;7.622;2023-07-28T07:55:47;4.78;;;3.60;;
15114;SDS011;7658;51.456;7.622;2023-07-28T07:58:14;5.40;;;3.55;;
15114;SDS011;7658;51.456;7.622;2023-07-28T08:00:40;6.28;;;4.35;;
15114;SDS011;7658;51.456;7.622;2023-07-28T08:03:05;6.15;;;4.35;;
15114;SDS011;7658;51.456;7.622;2023-07-28T08:05:31;5.43;;;4.18;;
15114;SDS011;7658;51.456;7.622;2023-07-28T08:07:57;5.43;;;4.07;;
15114;SDS011;7658;51.456;7.622;2023-07-28T08:10:23;6.13;;;4.47;;
15114;SDS011;7658;51.456;7.622;2023-07-28T08:12:49;6.00;;;4.70;;
15114;SDS011;7658;51.456;7.622;2023-07-28T08:15:15;6.45;;;4.82;;
15114;SDS011;7658;51.456;7.622;2023-07-28T08:17:40;6.40;;;5.05;;
15114;SDS011;7658;51.456;7.622;2023-07-28T08:20:07;7.20;;;4.97;;
15114;SDS011;7658;51.456;7.622;2023-07-28T08:22:33;6.93;;;4.85;;
15114;SDS011;7658;51.456;7.622;2023-07-28T08:24:59;8.27;;;5.40;;
15114;SDS011;7658;51.456;7.622;2023-07-28T08:27:25;6.68;;;4.65;;
15114;SDS011;7658;51.456;7.622;2023-07-28T08:29:50;7.43;;;4.97;;
15114;SDS011;7658;51.456;7.622;2023-07-28T08:32:16;6.57;;;4.65;;
15114;SDS011;7658;51.456;7.622;2023-07-28T08:34:42;8.10;;;4.45;;
15114;SDS011;7658;51.456;7.622;2023-07-28T08:37:08;6.32;;;4.10;;
15114;SDS011;7658;51.456;7.622;2023-07-28T08:39:34;5.85;;;4.28;;
15114;SDS011;7658;51.456;7.622;2023-07-28T08:42:00;3.97;;;3.40;;
15114;SDS011;7658;51.456;7.622;2023-07-28T08:44:30;4.05;;;3.05;;
15114;SDS011;7658;51.456;7.622;2023-07-28T08:46:58;5.93;;;3.90;;
15114;SDS011;7658;51.456;7.622;2023-07-28T08:49:29;7.70;;;3.60;;
15114;SDS011;7658;51.456;7.622;2023-07-28T08:52:00;7.68;;;3.33;;
15114;SDS011;7658;51.456;7.622;2023-07-28T08:54:27;3.35;;;2.92;;
15114;SDS011;7658;51.456;7.622;2023-07-28T08:56:53;2.95;;;2.70;;
15114;SDS011;7658;51.456;7.622;2023-07-28T08:59:22;3.45;;;2.63;;
15114;SDS011;7658;51.456;7.622;2023-07-28T09:01:50;4.68;;;2.90;;
15114;SDS011;7658;51.456;7.622;2023-07-28T09:04:17;3.85;;;2.83;;
15114;SDS011;7658;51.456;7.622;2023-07-28T09:06:47;3.08;;;2.67;;
15114;SDS011;7658;51.456;7.622;2023-07-28T09:09:13;3.17;;;2.40;;
15114;SDS011;7658;51.456;7.622;2023-07-28T09:14:13;2.92;;;2.50;;
15114;SDS011;7658;51.456;7.622;2023-07-28T09:16:41;2.53;;;2.28;;
15114;SDS011;7658;51.456;7.622;2023-07-28T09:19:10;2.80;;;2.47;;
15114;SDS011;7658;51.456;7.622;2023-07-28T09:21:39;2.50;;;2.30;;
15114;SDS011;7658;51.456;7.622;2023-07-28T09:24:09;2.50;;;2.30;;
15114;SDS011;7658;51.456;7.622;2023-07-28T09:29:14;2.45;;;2.17;;
15114;SDS011;7658;51.456;7.622;2023-07-28T09:31:44;2.60;;;2.40;;
15114;SDS011;7658;51.456;7.622;2023-07-28T09:34:22;2.67;;;2.20;;
15114;SDS011;7658;51.456;7.622;2023-07-28T09:36:56;2.42;;;2.22;;
15114;SDS011;7658;51.456;7.622;2023-07-28T09:39:24;3.45;;;1.90;;
15114;SDS011;7658;51.456;7.622;2023-07-28T09:41:50;2.33;;;1.98;;
15114;SDS011;7658;51.456;7.622;2023-07-28T09:44:16;2.05;;;1.92;;
15114;SDS011;7658;51.456;7.622;2023-07-28T09:46:52;2.28;;;2.08;;
15114;SDS011;7658;51.456;7.622;2023-07-28T09:49:36;2.05;;;1.70;;
15114;SDS011;7658;51.456;7.622;2023-07-28T09:52:05;2.10;;;2.00;;
15114;SDS011;7658;51.456;7.622;2023-07-28T09:54:35;2.13;;;2.03;;
15114;SDS011;7658;51.456;7.622;2023-07-28T09:57:08;2.40;;;1.70;;
15114;SDS011;7658;51.456;7.622;2023-07-28T09:59:40;1.73;;;1.63;;
15114;SDS011;7658;51.456;7.622;2023-07-28T10:02:08;2.20;;;2.00;;
15114;SDS011;7658;51.456;7.622;2023-07-28T10:04:34;2.50;;;2.30;;
15114;SDS011;7658;51.456;7.622;2023-07-28T10:07:01;5.18;;;2.30;;
15114;SDS011;7658;51.456;7.622;2023-07-28T10:09:29;2.47;;;2.22;;
15114;SDS011;7658;51.456;7.622;2023-07-28T10:11:56;4.00;;;2.33;;
15114;SDS011;7658;51.456;7.622;2023-07-28T10:14:29;3.83;;;2.08;;
15114;SDS011;7658;51.456;7.622;2023-07-28T10:16:57;2.55;;;2.13;;
15114;SDS011;7658;51.456;7.622;2023-07-28T10:19:27;4.13;;;2.10;;
15114;SDS011;7658;51.456;7.622;2023-07-28T10:22:07;2.45;;;2.20;;
15114;SDS011;7658;51.456;7.622;2023-07-28T10:24:50;2.58;;;1.77;;
15114;SDS011;7658;51.456;7.622;2023-07-28T10:30:15;3.60;;;2.35;;
15114;SDS011;7658;51.456;7.622;2023-07-28T10:32:45;3.17;;;2.55;;
15114;SDS011;7658;51.456;7.622;2023-07-28T10:37:46;4.03;;;3.17;;
15114;SDS011;7658;51.456;7.622;2023-07-28T10:42:55;3.97;;;2.78;;
15114;SDS011;7658;51.456;7.622;2023-07-28T10:45:22;3.70;;;3.30;;
15114;SDS011;7658;51.456;7.622;2023-07-28T10:47:50;5.95;;;3.50;;
15114;SDS011;7658;51.456;7.622;2023-07-28T10:50:17;4.15;;;3.30;;
15114;SDS011;7658;51.456;7.622;2023-07-28T10:52:44;3.60;;;3.13;;
15114;SDS011;7658;51.456;7.622;2023-07-28T10:55:14;3.33;;;3.05;;
15114;SDS011;7658;51.456;7.622;2023-07-28T10:57:47;3.40;;;3.10;;
15114;SDS011;7658;51.456;7.622;2023-07-28T11:00:15;4.25;;;3.17;;
15114;SDS011;7658;51.456;7.622;2023-07-28T11:05:10;5.53;;;3.95;;
15114;SDS011;7658;51.456;7.622;2023-07-28T11:07:44;6.28;;;4.18;;
15114;SDS011;7658;51.456;7.622;2023-07-28T11:10:11;5.35;;;4.55;;
15114;SDS011;7658;51.456;7.622;2023-07-28T11:12:42;6.30;;;4.32;;
15114;SDS011;7658;51.456;7.622;2023-07-28T11:15:09;5.43;;;4.93;;
15114;SDS011;7658;51.456;7.622;2023-07-28T11:17:39;5.20;;;4.72;;
15114;SDS011;7658;51.456;7.622;2023-07-28T11:20:18;6.28;;;4.85;;
15114;SDS011;7658;51.456;7.622;2023-07-28T11:23:00;5.13;;;4.57;;
15114;SDS011;7658;51.456;7.622;2023-07-28T11:25:31;5.13;;;4.00;;
15114;SDS011;7658;51.456;7.622;2023-07-28T11:28:00;5.28;;;4.32;;
15114;SDS011;7658;51.456;7.622;2023-07-28T11:30:28;5.47;;;4.53;;
15114;SDS011;7658;51.456;7.622;2023-07-28T11:32:54;6.68;;;4.63;;
15114;SDS011;7658;51.456;7.622;2023-07-28T11:35:20;4.53;;;4.13;;
15114;SDS011;7658;51.456;7.622;2023-07-28T11:37:50;6.25;;;4.40;;
15114;SDS011;7658;51.456;7.622;2023-07-28T11:40:18;4.68;;;3.35;;
15114;SDS011;7658;51.456;7.622;2023-07-28T11:45:17;3.45;;;3.15;;
15114;SDS011;7658;51.456;7.622;2023-07-28T11:50:25;4.93;;;3.30;;
15114;SDS011;7658;51.456;7.622;2023-07-28T11:52:53;5.93;;;3.63;;
15114;SDS011;7658;51.456;7.622;2023-07-28T11:55:21;5.18;;;3.20;;
15114;SDS011;7658;51.456;7.622;2023-07-28T11:57:48;5.10;;;3.95;;
15114;SDS011;7658;51.456;7.622;2023-07-28T12:00:14;10.23;;;3.95;;
15114;SDS011;7658;51.456;7.622;2023-07-28T12:02:51;6.75;;;3.90;;
15114;SDS011;7658;51.456;7.622;2023-07-28T12:05:29;3.90;;;3.50;;
15114;SDS011;7658;51.456;7.622;2023-07-28T12:07:55;4.03;;;2.58;;
15114;SDS011;7658;51.456;7.622;2023-07-28T12:10:21;3.08;;;2.70;;
15114;SDS011;7658;51.456;7.622;2023-07-28T12:12:47;3.03;;;2.72;;
15114;SDS011;7658;51.456;7.622;2023-07-28T12:23:07;4.28;;;2.50;;
15114;SDS011;7658;51.456;7.622;2023-07-28T12:25:35;2.55;;;2.35;;
15114;SDS011;7658;51.456;7.622;2023-07-28T12:28:01;5.00;;;2.50;;
15114;SDS011;7658;51.456;7.622;2023-07-28T12:30:27;2.50;;;2.30;;
15114;SDS011;7658;51.456;7.622;2023-07-28T12:32:53;2.15;;;2.00;;
15114;SDS011;7658;51.456;7.622;2023-07-28T12:35:19;3.25;;;2.50;;
15114;SDS011;7658;51.456;7.622;2023-07-28T12:37:48;2.28;;;2.08;;
15114;SDS011;7658;51.456;7.622;2023-07-28T12:40:15;3.15;;;1.95;;
15114;SDS011;7658;51.456;7.622;2023-07-28T12:42:41;2.08;;;1.85;;
15114;SDS011;7658;51.456;7.622;2023-07-28T12:45:07;2.20;;;2.00;;
15114;SDS011;7658;51.456;7.622;2023-07-28T12:47:33;2.38;;;2.17;;
15114;SDS011;7658;51.456;7.622;2023-07-28T12:49:59;2.38;;;2.10;;
15114;SDS011;7658;51.456;7.622;2023-07-28T12:52:25;2.53;;;2.33;;
15114;SDS011;7658;51.456;7.622;2023-07-28T12:54:50;2.63;;;2.17;;
15114;SDS011;7658;51.456;7.622;2023-07-28T12:57:16;3.22;;;2.35;;
15114;SDS011;7658;51.456;7.622;2023-07-28T12:59:43;2.88;;;2.55;;
15114;SDS011;7658;51.456;7.622;2023-07-28T13:02:09;1.98;;;1.88;;
15114;SDS011;7658;51.456;7.622;2023-07-28T13:04:35;1.77;;;1.40;;
15114;SDS011;7658;51.456;7.622;2023-07-28T13:07:00;1.20;;;1.20;;
15114;SDS011;7658;51.456;7.622;2023-07-28T13:09:26;1.60;;;1.50;;
15114;SDS011;7658;51.456;7.622;2023-07-28T13:11:53;3.33;;;1.60;;
15114;SDS011;7658;51.456;7.622;2023-07-28T13:14:19;2.45;;;1.88;;
15114;SDS011;7658;51.456;7.622;2023-07-28T13:16:44;1.50;;;1.40;;
15114;SDS011;7658;51.456;7.622;2023-07-28T13:19:10;1.70;;;1.60;;
15114;SDS011;7658;51.456;7.622;2023-07-28T13:21:37;1.90;;;1.80;;
15114;SDS011;7658;51.456;7.622;2023-07-28T13:24:03;2.22;;;1.80;;
15114;SDS011;7658;51.456;7.622;2023-07-28T13:26:29;1.90;;;1.80;;
15114;SDS011;7658;51.456;7.622;2023-07-28T13:28:55;1.70;;;1.60;;
15114;SDS011;7658;51.456;7.622;2023-07-28T13:31:23;2.13;;;1.90;;
15114;SDS011;7658;51.456;7.622;2023-07-28T13:33:49;2.30;;;1.45;;
15114;SDS011;7658;51.456;7.622;2023-07-28T13:36:15;2.05;;;1.60;;
15114;SDS011;7658;51.456;7.622;2023-07-28T13:38:40;1.70;;;1.60;;
15114;SDS011;7658;51.456;7.622;2023-07-28T13:41:06;1.52;;;1.42;;
15114;SDS011;7658;51.456;7.622;2023-07-28T13:43:32;1.77;;;1.63;;
15114;SDS011;7658;51.456;7.622;2023-07-28T13:46:01;1.70;;;1.60;;
15114;SDS011;7658;51.456;7.622;2023-07-28T13:48:27;1.65;;;1.55;;
15114;SDS011;7658;51.456;7.622;2023-07-28T13:50:53;1.67;;;1.58;;
15114;SDS011;7658;51.456;7.622;2023-07-28T13:53:19;1.52;;;1.42;;
15114;SDS011;7658;51.456;7.622;2023-07-28T13:55:44;1.50;;;1.40;;
15114;SDS011;7658;51.456;7.622;2023-07-28T13:58:10;1.48;;;1.38;;
15114;SDS011;7658;51.456;7.622;2023-07-28T14:00:36;1.60;;;1.50;;
15114;SDS011;7658;51.456;7.622;2023-07-28T14:03:02;1.77;;;1.67;;
15114;SDS011;7658;51.456;7.622;2023-07-28T14:05:28;1.80;;;1.42;;
15114;SDS011;7658;51.456;7.622;2023-07-28T14:07:54;2.17;;;1.40;;
15114;SDS011;7658;51.456;7.622;2023-07-28T14:10:19;1.35;;;1.33;;
15114;SDS011;7658;51.456;7.622;2023-07-28T14:12:45;1.60;;;1.25;;
15114;SDS011;7658;51.456;7.622;2023-07-28T14:15:11;1.45;;;1.35;;
15114;SDS011;7658;51.456;7.622;2023-07-28T14:17:37;1.48;;;1.38;;
15114;SDS011;7658;51.456;7.622;2023-07-28T14:20:03;1.60;;;1.40;;
15114;SDS011;7658;51.456;7.622;2023-07-28T14:22:29;1.85;;;1.50;;
15114;SDS011;7658;51.456;7.622;2023-07-28T14:24:55;1.60;;;1.50;;
15114;SDS011;7658;51.456;7.622;2023-07-28T14:27:20;1.60;;;1.50;;
15114;SDS011;7658;51.456;7.622;2023-07-28T14:29:46;1.55;;;1.42;;
15114;SDS011;7658;51.456;7.622;2023-07-28T14:32:12;1.58;;;1.30;;
15114;SDS011;7658;51.456;7.622;2023-07-28T14:34:38;2.65;;;1.20;;
15114;SDS011;7658;51.456;7.622;2023-07-28T14:37:04;1.30;;;1.20;;
15114;SDS011;7658;51.456;7.622;2023-07-28T14:39:33;1.60;;;1.50;;
15114;SDS011;7658;51.456;7.622;2023-07-28T14:41:59;1.70;;;1.60;;
15114;SDS011;7658;51.456;7.622;2023-07-28T14:44:25;2.33;;;1.40;;
15114;SDS011;7658;51.456;7.622;2023-07-28T14:46:51;2.15;;;1.60;;
15114;SDS011;7658;51.456;7.622;2023-07-28T14:49:17;1.48;;;1.38;;
15114;SDS011;7658;51.456;7.622;2023-07-28T14:51:42;3.10;;;1.52;;
15114;SDS011;7658;51.456;7.622;2023-07-28T14:54:08;3.17;;;1.83;;
15114;SDS011;7658;51.456;7.622;2023-07-28T14:56:34;3.33;;;1.58;;
15114;SDS011;7658;51.456;7.622;2023-07-28T14:59:00;2.67;;;1.58;;
15114;SDS011;7658;51.456;7.622;2023-07-28T15:01:27;1.73;;;1.50;;
15114;SDS011;7658;51.456;7.622;2023-07-28T15:03:53;4.18;;;1.60;;
15114;SDS011;7658;51.456;7.622;2023-07-28T15:06:18;1.80;;;1.70;;
15114;SDS011;7658;51.456;7.622;2023-07-28T15:08:44;2.75;;;1.60;;
15114;SDS011;7658;51.456;7.622;2023-07-28T15:11:10;2.72;;;1.45;;
15114;SDS011;7658;51.456;7.622;2023-07-28T15:13:36;1.70;;;1.60;;
15114;SDS011;7658;51.456;7.622;2023-07-28T15:16:01;1.67;;;1.60;;
15114;SDS011;7658;51.456;7.622;2023-07-28T15:18:27;1.70;;;1.60;;
15114;SDS011;7658;51.456;7.622;2023-07-28T15:20:53;2.03;;;1.80;;
15114;SDS011;7658;51.456;7.622;2023-07-28T15:23:24;2.30;;;1.75;;
15114;SDS011;7658;51.456;7.622;2023-07-28T15:25:51;2.22;;;1.60;;
15114;SDS011;7658;51.456;7.622;2023-07-28T15:28:17;3.92;;;1.70;;